NCAR-RAP Real-Time Weather Data

Output produced by METARs form (19 June 2019  10:53 UTC)
found at http://weather.rap.ucar.edu/surface/
 
KGRR 190953Z 17003KT 9SM FEW080 BKN110 OVC250 16/14 A2982 RMK AO2 SLP093 T01560139
KGRR 190853Z AUTO 00000KT 10SM SCT044 BKN090 15/13 A2982 RMK AO2 SLP093 T01500133 58013
KGRR 190753Z AUTO 00000KT 10SM CLR 16/14 A2983 RMK AO2 SLP098 T01560139
KGRR 190653Z AUTO 00000KT 10SM FEW050 16/14 A2985 RMK AO2 SLP105 T01560139
KGRR 190553Z AUTO 00000KT 10SM CLR 17/14 A2986 RMK AO2 SLP107 T01670144 10239 20161 58006
KGRR 190453Z AUTO 17003KT 10SM CLR 16/14 A2987 RMK AO2 SLP112 T01610139 402720133
KGRR 190353Z 00000KT 10SM FEW250 18/14 A2988 RMK AO2 SLP114 LAST T01830139
KGRR 190253Z 00000KT 10SM CLR 19/14 A2987 RMK AO2 SLP113 T01940144 53002
KGRR 190153Z 30003KT 10SM FEW170 SCT250 21/14 A2987 RMK AO2 SLP110 T02110144
KGRR 190053Z 30007KT 10SM FEW040 SCT170 BKN250 22/15 A2987 RMK AO2 SLPNO T02220150
KGRR 182353Z 29008KT 10SM FEW044 BKN170 BKN250 24/16 A2987 RMK AO2 SLP111 T02390156 10272 20233 55007
KGRR 182253Z 30007KT 10SM SCT042 BKN160 BKN250 26/17 A2986 RMK AO2 SLP108 T02610167
KGRR 182153Z 24006KT 10SM FEW047 SCT250 26/15 A2987 RMK AO2 SLP111 T02610150
KGRR 182053Z 25003KT 10SM FEW047 SCT050 BKN250 26/15 A2989 RMK AO2 SLP119 T02560150 58019
KGRR 181953Z 19005KT 10SM FEW043 SCT050 SCT250 26/16 A2991 RMK AO2 SLP127 T02560156
KGRR 181853Z 09003KT 10SM SCT041 BKN050 BKN250 24/15 A2993 RMK AO2 SLP133 T02390150
KGRR 181753Z 00000KT 10SM FEW036 BKN048 23/15 A2995 RMK AO2 SLP138 T02330150 58007 $
KGRR 181653Z 00000KT 10SM FEW034 BKN040 23/15 A2996 RMK AO2 SLP142 T02280150 $
KGRR 181553Z 00000KT 10SM BKN040 BKN250 21/15 A2997 RMK AO2 SLP146 T02110150 $
KGRR 181453Z 00000KT 10SM FEW018 BKN036 21/16 A2997 RMK AO2 SLP146 T02060161 58004 $